Time;durP1;ratioP1;P1;durP2;ratioP2;P2;SDS_P1;SDS_P2;PMS_P1;PMS_P2;Temp;Humidity;BMP_temperature;BMP_pressure;BME280_temperature;BME280_humidity;BME280_pressure;Samples;Min_cycle;Max_cycle;Signal;HPM_P1;HPM_P2
2022/09/07 00:02:06;;;;;;;11.32;9.38;;;17.90;97.10;;;;;;5052872;28;20037;-53
2022/09/07 00:04:32;;;;;;;10.85;9.18;;;17.80;97.10;;;;;;5046519;28;20096;-53
2022/09/07 00:06:57;;;;;;;11.23;8.13;;;17.80;97.50;;;;;;5039437;28;20071;-53
2022/09/07 00:09:22;;;;;;;12.55;9.85;;;17.80;97.80;;;;;;5044372;28;20195;-53
2022/09/07 00:11:48;;;;;;;13.10;9.23;;;17.80;97.90;;;;;;5052711;28;20414;-53
2022/09/07 00:14:13;;;;;;;13.13;9.40;;;17.80;98.10;;;;;;5051027;28;20028;-53
2022/09/07 00:16:39;;;;;;;16.42;8.82;;;17.80;98.40;;;;;;5052889;28;20044;-53
2022/09/07 00:19:04;;;;;;;9.75;8.75;;;17.80;98.60;;;;;;5052751;28;20429;-53
2022/09/07 00:21:30;;;;;;;13.32;9.80;;;17.70;98.90;;;;;;5052521;28;20036;-53
2022/09/07 00:23:56;;;;;;;11.43;9.50;;;17.70;99.20;;;;;;5052204;28;20027;-53
2022/09/07 00:26:25;;;;;;;11.20;9.25;;;17.70;99.50;;;;;;5052513;28;20370;-53
2022/09/07 00:28:51;;;;;;;12.45;9.43;;;17.70;99.70;;;;;;5052373;28;20576;-53
2022/09/07 00:31:20;;;;;;;12.43;9.55;;;17.60;99.90;;;;;;5052419;28;20017;-53
2022/09/07 00:33:47;;;;;;;16.20;9.80;;;17.60;99.90;;;;;;5051662;28;20378;-53
2022/09/07 00:36:14;;;;;;;11.52;8.90;;;17.60;99.90;;;;;;5045084;28;20095;-53
2022/09/07 00:38:40;;;;;;;11.32;9.52;;;17.60;99.90;;;;;;5043682;28;20032;-53
2022/09/07 00:41:05;;;;;;;16.95;10.48;;;17.50;99.90;;;;;;5052024;28;20033;-53
2022/09/07 00:43:38;;;;;;;11.77;9.05;;;17.50;99.90;;;;;;5050354;28;20166;-53
2022/09/07 00:46:05;;;;;;;16.52;10.38;;;17.50;99.90;;;;;;5050995;28;20079;-53
2022/09/07 00:49:00;;;;;;;19.70;10.77;;;17.40;99.90;;;;;;5052194;28;20110;-52
2022/09/07 00:51:34;;;;;;;16.23;10.60;;;17.40;99.90;;;;;;5047832;28;20517;-52
2022/09/07 00:54:04;;;;;;;11.23;9.68;;;17.40;99.90;;;;;;5039434;28;20159;-52
2022/09/07 00:56:35;;;;;;;13.85;10.23;;;17.40;99.90;;;;;;5052027;28;20036;-53
2022/09/07 00:59:01;;;;;;;14.32;10.57;;;17.40;99.90;;;;;;5047563;28;20029;-52
2022/09/07 01:01:26;;;;;;;13.40;10.55;;;17.40;99.90;;;;;;5042128;28;20529;-52
2022/09/07 01:03:55;;;;;;;14.25;11.13;;;17.40;99.90;;;;;;5046140;28;20091;-52
2022/09/07 01:06:25;;;;;;;11.40;10.00;;;17.30;99.90;;;;;;5041484;28;20071;-52
2022/09/07 01:08:50;;;;;;;14.73;10.60;;;17.30;99.90;;;;;;5050594;28;20028;-52
2022/09/07 01:11:18;;;;;;;11.32;10.18;;;17.20;99.90;;;;;;5050855;28;20025;-52
2022/09/07 01:13:45;;;;;;;11.15;10.05;;;17.20;99.90;;;;;;5050118;28;20034;-52
2022/09/07 01:16:41;;;;;;;14.35;11.30;;;17.20;99.90;;;;;;5050486;28;20401;-52
2022/09/07 01:19:33;;;;;;;13.52;10.57;;;17.10;99.90;;;;;;5050111;28;20021;-52
2022/09/07 01:22:27;;;;;;;13.38;11.45;;;17.10;99.90;;;;;;5050136;28;20359;-52
2022/09/07 01:25:17;;;;;;;13.10;10.70;;;17.00;99.90;;;;;;5029700;28;20043;-53
2022/09/07 01:28:03;;;;;;;12.77;11.35;;;17.00;99.90;;;;;;5051444;28;20025;-52
2022/09/07 01:30:33;;;;;;;14.63;11.27;;;17.00;99.90;;;;;;5051358;28;20049;-52
2022/09/07 01:33:12;;;;;;;12.23;10.75;;;17.00;99.90;;;;;;5050632;28;20032;-52
2022/09/07 01:35:46;;;;;;;14.23;11.23;;;17.00;99.90;;;;;;5042368;28;20036;-52
2022/09/07 01:38:22;;;;;;;15.07;11.82;;;17.00;99.90;;;;;;5049438;28;20025;-52
2022/09/07 01:41:09;;;;;;;12.90;11.02;;;16.90;99.90;;;;;;5051294;28;20043;-53
2022/09/07 01:43:53;;;;;;;18.63;12.02;;;16.90;99.90;;;;;;5050595;28;20033;-52
2022/09/07 01:46:27;;;;;;;15.07;11.32;;;16.90;99.90;;;;;;5050673;28;20021;-52
2022/09/07 01:49:21;;;;;;;17.83;12.32;;;16.90;99.90;;;;;;5050949;28;20094;-52
2022/09/07 01:51:52;;;;;;;16.73;11.80;;;16.90;99.90;;;;;;5020857;28;20038;-52
2022/09/07 01:54:30;;;;;;;13.98;10.80;;;16.80;99.90;;;;;;5019775;28;20026;-53
2022/09/07 01:57:02;;;;;;;12.43;11.02;;;16.80;99.90;;;;;;5018870;28;20026;-53
2022/09/07 01:59:32;;;;;;;13.52;11.57;;;16.80;99.90;;;;;;5018332;28;20030;-53
2022/09/07 02:02:07;;;;;;;12.90;11.52;;;16.80;99.90;;;;;;5019309;28;20021;-52
2022/09/07 02:05:01;;;;;;;13.98;12.38;;;16.70;99.90;;;;;;5021695;28;20021;-53
2022/09/07 02:07:44;;;;;;;12.63;11.00;;;16.70;99.90;;;;;;5021983;28;20466;-52
2022/09/07 02:10:15;;;;;;;11.93;10.68;;;16.70;99.90;;;;;;5028767;28;20025;-51
2022/09/07 02:12:44;;;;;;;15.57;12.43;;;16.60;99.90;;;;;;5020199;28;20032;-53
2022/09/07 02:15:26;;;;;;;13.55;11.75;;;16.60;99.90;;;;;;5018277;28;20037;-53
2022/09/07 02:17:58;;;;;;;14.48;11.65;;;16.60;99.90;;;;;;5025252;28;20313;-53
2022/09/07 02:20:28;;;;;;;16.38;12.98;;;16.60;99.90;;;;;;5028504;28;20049;-53
2022/09/07 02:22:58;;;;;;;20.52;13.25;;;16.60;99.90;;;;;;5014369;28;20026;-53
2022/09/07 02:25:27;;;;;;;16.38;12.43;;;16.60;99.90;;;;;;5016584;28;20116;-53
2022/09/07 02:27:57;;;;;;;16.08;12.80;;;16.60;99.90;;;;;;5024875;28;20057;-52
2022/09/07 02:30:23;;;;;;;15.98;12.30;;;16.50;99.90;;;;;;5019465;28;20026;-53
2022/09/07 02:32:49;;;;;;;18.30;14.38;;;16.50;99.90;;;;;;5017391;28;20430;-53
2022/09/07 02:35:15;;;;;;;17.20;14.48;;;16.50;99.90;;;;;;5016160;28;20025;-50
2022/09/07 02:37:42;;;;;;;17.85;13.73;;;16.50;99.90;;;;;;5009070;28;20502;-53
2022/09/07 02:40:08;;;;;;;18.40;14.55;;;16.40;99.90;;;;;;5029282;28;20032;-51
2022/09/07 02:42:35;;;;;;;16.25;13.73;;;16.50;99.90;;;;;;5029541;28;20040;-53
2022/09/07 02:45:04;;;;;;;14.98;13.25;;;16.40;99.90;;;;;;5029540;28;20033;-52
2022/09/07 02:47:50;;;;;;;16.92;14.10;;;16.40;99.90;;;;;;5029834;28;20459;-53
2022/09/07 02:50:36;;;;;;;18.98;13.02;;;16.40;99.90;;;;;;5028731;28;20435;-54
2022/09/07 02:53:23;;;;;;;13.43;12.02;;;16.40;99.90;;;;;;5034043;28;20036;-54
2022/09/07 02:56:11;;;;;;;18.80;13.80;;;16.30;99.90;;;;;;5038338;28;20025;-54
2022/09/07 02:59:01;;;;;;;20.98;13.18;;;16.30;99.90;;;;;;5030663;28;20018;-54
2022/09/07 03:01:56;;;;;;;14.68;12.95;;;16.30;99.90;;;;;;5030173;28;20112;-53
2022/09/07 03:04:58;;;;;;;17.23;12.75;;;16.20;99.90;;;;;;5029836;28;20438;-54
2022/09/07 03:07:54;;;;;;;16.92;13.63;;;16.20;99.90;;;;;;5032635;28;20055;-54
2022/09/07 03:10:20;;;;;;;16.30;13.90;;;16.10;99.90;;;;;;5037857;28;20025;-54
2022/09/07 03:12:48;;;;;;;16.42;13.65;;;16.10;99.90;;;;;;5049216;28;20025;-54
2022/09/07 03:15:20;;;;;;;20.13;14.38;;;16.10;99.90;;;;;;5049749;28;20091;-54
2022/09/07 03:17:46;;;;;;;16.23;13.85;;;16.10;99.90;;;;;;5049809;28;20074;-54
2022/09/07 03:20:11;;;;;;;18.05;13.68;;;16.00;99.90;;;;;;5046674;28;20033;-54
2022/09/07 03:22:37;;;;;;;16.48;13.27;;;16.00;99.90;;;;;;5040450;28;20021;-55
2022/09/07 03:25:03;;;;;;;15.73;13.18;;;16.00;99.90;;;;;;5049620;28;20036;-54
2022/09/07 03:27:30;;;;;;;19.58;14.10;;;16.00;99.90;;;;;;5052020;28;20024;-54
2022/09/07 03:29:57;;;;;;;17.45;14.43;;;16.00;99.90;;;;;;5051926;28;20356;-54
2022/09/07 03:32:22;;;;;;;18.35;13.60;;;16.00;99.90;;;;;;5053155;28;20052;-54
2022/09/07 03:34:48;;;;;;;16.63;13.20;;;16.00;99.90;;;;;;5053321;28;20114;-54
2022/09/07 03:37:13;;;;;;;19.50;13.70;;;15.90;99.90;;;;;;5052954;28;20091;-54
2022/09/07 03:39:39;;;;;;;15.13;13.35;;;15.90;99.90;;;;;;5053253;28;20498;-54
2022/09/07 03:42:04;;;;;;;16.63;13.70;;;15.90;99.90;;;;;;5052857;28;20486;-54
2022/09/07 03:44:30;;;;;;;15.35;13.57;;;15.90;99.90;;;;;;5052830;28;20025;-54
2022/09/07 03:46:56;;;;;;;16.80;13.40;;;15.90;99.90;;;;;;5053335;28;20044;-54
2022/09/07 03:49:21;;;;;;;17.85;13.20;;;15.80;99.90;;;;;;5053010;28;20475;-54
2022/09/07 03:51:47;;;;;;;18.48;14.15;;;15.80;99.90;;;;;;5043947;28;20093;-54
2022/09/07 03:54:12;;;;;;;16.77;13.40;;;15.90;99.90;;;;;;5051102;28;20052;-54
2022/09/07 03:56:38;;;;;;;18.25;13.82;;;15.80;99.90;;;;;;5052826;28;20086;-53
2022/09/07 03:59:03;;;;;;;18.58;13.43;;;15.80;99.90;;;;;;5052694;28;20072;-54
2022/09/07 04:01:28;;;;;;;24.55;14.45;;;15.80;99.90;;;;;;5052828;28;20486;-53
2022/09/07 04:03:57;;;;;;;19.63;14.77;;;15.80;99.90;;;;;;5051885;28;20025;-53
2022/09/07 04:06:23;;;;;;;19.08;14.43;;;15.80;99.90;;;;;;5052344;28;20028;-53
2022/09/07 04:08:49;;;;;;;18.40;13.27;;;15.80;99.90;;;;;;5039994;28;20025;-53
2022/09/07 04:11:17;;;;;;;22.65;14.63;;;15.80;99.90;;;;;;5050790;28;20025;-52
2022/09/07 04:13:43;;;;;;;19.75;13.57;;;15.80;99.90;;;;;;5050535;28;20670;-53
2022/09/07 04:16:16;;;;;;;16.98;12.77;;;15.80;99.90;;;;;;5044061;28;20060;-53
2022/09/07 04:18:42;;;;;;;19.25;14.25;;;15.80;99.90;;;;;;5052448;28;20037;-53
2022/09/07 04:21:08;;;;;;;15.02;13.40;;;15.80;99.90;;;;;;5048786;28;20036;-53
2022/09/07 04:23:36;;;;;;;21.05;12.90;;;15.80;99.90;;;;;;5044906;28;20514;-53
2022/09/07 04:26:02;;;;;;;22.75;14.65;;;15.80;99.90;;;;;;5052579;28;20051;-52
2022/09/07 04:28:27;;;;;;;16.95;13.45;;;15.80;99.90;;;;;;5052333;28;20068;-53
2022/09/07 04:30:53;;;;;;;24.75;13.90;;;15.80;99.90;;;;;;5052253;28;20047;-53
2022/09/07 04:33:18;;;;;;;19.90;12.73;;;15.80;99.90;;;;;;5051764;28;20439;-53
2022/09/07 04:35:44;;;;;;;19.83;14.70;;;15.80;99.90;;;;;;5052470;28;20032;-53
2022/09/07 04:38:13;;;;;;;18.80;14.18;;;15.80;99.90;;;;;;5050931;28;20029;-53
2022/09/07 04:40:39;;;;;;;18.92;12.70;;;15.80;99.90;;;;;;5052246;28;20029;-52
2022/09/07 04:43:06;;;;;;;22.33;13.98;;;15.80;99.90;;;;;;5051468;28;20030;-52
2022/09/07 04:45:34;;;;;;;17.92;14.90;;;15.80;99.90;;;;;;5038936;28;20018;-51
2022/09/07 04:48:00;;;;;;;21.42;13.73;;;15.80;99.90;;;;;;5020940;28;20017;-52
2022/09/07 04:50:25;;;;;;;18.85;14.05;;;15.90;99.90;;;;;;5022818;28;20071;-52
2022/09/07 04:52:51;;;;;;;22.90;15.50;;;15.90;99.90;;;;;;5022993;28;20457;-52
2022/09/07 04:55:17;;;;;;;18.70;14.52;;;15.80;99.90;;;;;;5019502;28;20061;-52
2022/09/07 04:57:43;;;;;;;23.50;19.23;;;15.90;99.90;;;;;;5021813;28;20467;-52
2022/09/07 05:00:10;;;;;;;24.00;18.13;;;16.00;99.90;;;;;;5019200;28;20041;-52
2022/09/07 05:02:36;;;;;;;20.85;17.63;;;16.10;99.90;;;;;;5016546;28;20044;-53
2022/09/07 05:05:03;;;;;;;29.63;21.73;;;16.10;99.90;;;;;;5019310;28;20017;-53
2022/09/07 05:07:28;;;;;;;28.55;23.35;;;16.20;99.90;;;;;;5027508;28;20539;-54
2022/09/07 05:09:53;;;;;;;26.35;21.23;;;16.30;99.90;;;;;;5040883;28;20104;-52
2022/09/07 05:12:19;;;;;;;26.10;21.55;;;16.30;99.90;;;;;;5018645;28;20415;-54
2022/09/07 05:14:44;;;;;;;25.65;18.88;;;16.40;99.90;;;;;;5010089;28;20148;-53
2022/09/07 05:17:10;;;;;;;20.88;17.98;;;16.40;99.90;;;;;;5010810;28;20038;-54
2022/09/07 05:19:36;;;;;;;19.42;16.25;;;16.40;99.90;;;;;;5010706;28;20042;-54
2022/09/07 05:22:01;;;;;;;21.60;17.02;;;16.50;99.90;;;;;;5010380;28;20026;-51
2022/09/07 05:24:27;;;;;;;20.65;17.48;;;16.50;99.90;;;;;;5009633;28;20091;-51
2022/09/07 05:26:53;;;;;;;20.02;16.42;;;16.60;99.90;;;;;;5010160;28;20645;-51
2022/09/07 05:29:19;;;;;;;19.35;17.13;;;16.60;99.90;;;;;;5010287;28;20045;-53
2022/09/07 05:31:45;;;;;;;23.85;18.98;;;16.60;99.90;;;;;;5010451;28;20575;-54
2022/09/07 05:34:11;;;;;;;18.80;16.70;;;16.70;99.90;;;;;;5009548;28;20105;-53
2022/09/07 05:36:37;;;;;;;29.02;20.90;;;16.70;99.90;;;;;;5010211;28;20451;-54
2022/09/07 05:39:04;;;;;;;20.65;17.70;;;16.70;99.90;;;;;;5036698;28;20426;-53
2022/09/07 05:41:30;;;;;;;23.02;19.90;;;16.80;99.90;;;;;;5048152;28;20021;-53
2022/09/07 05:43:56;;;;;;;21.17;18.27;;;16.80;99.90;;;;;;5049077;28;20025;-53
2022/09/07 05:46:22;;;;;;;19.35;16.13;;;16.80;99.90;;;;;;5048101;28;20271;-53
2022/09/07 05:48:48;;;;;;;18.83;16.75;;;16.90;99.90;;;;;;5049845;28;20027;-53
2022/09/07 05:51:14;;;;;;;20.48;17.48;;;16.90;99.90;;;;;;5049495;28;20049;-54
2022/09/07 05:53:42;;;;;;;23.48;18.92;;;17.00;99.90;;;;;;5048802;28;20056;-53
2022/09/07 05:56:08;;;;;;;21.85;19.02;;;17.00;99.90;;;;;;5049558;28;20033;-54
2022/09/07 05:58:34;;;;;;;20.42;15.57;;;17.10;99.90;;;;;;5049281;28;20382;-54
2022/09/07 06:01:09;;;;;;;22.13;18.70;;;17.10;99.90;;;;;;5047889;28;20033;-54
2022/09/07 06:03:36;;;;;;;22.35;17.65;;;17.20;99.90;;;;;;5048799;28;20029;-53
2022/09/07 06:06:09;;;;;;;18.95;16.13;;;17.30;99.90;;;;;;5049108;28;20022;-53
2022/09/07 06:08:36;;;;;;;23.67;17.08;;;17.40;99.90;;;;;;5037757;28;20411;-53
2022/09/07 06:11:10;;;;;;;21.23;16.08;;;17.40;99.90;;;;;;5042686;28;20507;-53
2022/09/07 06:13:37;;;;;;;21.40;15.38;;;17.40;99.90;;;;;;5046663;28;20059;-53
2022/09/07 06:16:04;;;;;;;27.58;18.98;;;17.40;99.90;;;;;;5040558;28;20305;-54
2022/09/07 06:18:31;;;;;;;18.95;15.27;;;17.30;99.90;;;;;;5039892;28;20056;-53
2022/09/07 06:21:08;;;;;;;18.30;14.80;;;17.40;99.90;;;;;;5047984;28;20025;-53
2022/09/07 06:23:35;;;;;;;20.20;14.05;;;17.40;99.90;;;;;;5047191;28;20017;-53
2022/09/07 06:26:00;;;;;;;20.83;14.77;;;17.50;99.90;;;;;;5048234;28;20055;-53
2022/09/07 06:28:30;;;;;;;17.80;13.30;;;17.50;99.90;;;;;;5048128;28;20040;-53
2022/09/07 06:31:04;;;;;;;16.23;12.85;;;17.50;99.90;;;;;;5036837;28;20426;-54
2022/09/07 06:33:30;;;;;;;16.15;11.50;;;17.50;99.90;;;;;;5007737;28;20069;-53
2022/09/07 06:35:57;;;;;;;14.10;12.20;;;17.60;99.90;;;;;;5008257;28;20069;-53
2022/09/07 06:38:23;;;;;;;15.13;13.57;;;17.60;99.90;;;;;;5008174;28;20029;-53
2022/09/07 06:40:49;;;;;;;15.77;14.10;;;17.70;99.90;;;;;;5008131;28;20057;-53
2022/09/07 06:43:14;;;;;;;19.02;12.68;;;17.80;99.90;;;;;;5006300;28;20080;-53
2022/09/07 06:45:40;;;;;;;16.85;13.07;;;17.80;99.90;;;;;;5007455;28;20088;-54
2022/09/07 06:48:05;;;;;;;18.70;13.90;;;17.90;99.90;;;;;;5007969;28;20482;-54
2022/09/07 06:50:32;;;;;;;22.58;14.65;;;18.00;99.90;;;;;;5008017;28;20026;-53
2022/09/07 06:52:57;;;;;;;19.52;13.00;;;17.90;99.90;;;;;;5007687;28;20026;-53
2022/09/07 06:55:23;;;;;;;17.38;12.18;;;17.90;99.90;;;;;;5008248;28;20038;-53
2022/09/07 06:57:51;;;;;;;16.42;12.85;;;18.00;99.90;;;;;;5008138;28;20089;-54
2022/09/07 07:00:17;;;;;;;16.45;12.38;;;18.00;99.90;;;;;;5029084;28;20048;-53
2022/09/07 07:02:43;;;;;;;16.83;12.13;;;18.10;99.90;;;;;;5044448;28;20025;-54
2022/09/07 07:05:09;;;;;;;19.75;12.32;;;18.20;99.90;;;;;;5051821;28;20199;-54
2022/09/07 07:07:34;;;;;;;15.48;13.38;;;18.30;99.90;;;;;;5046216;28;20435;-54
2022/09/07 07:10:00;;;;;;;17.25;12.68;;;18.30;99.90;;;;;;5039101;28;20037;-54
2022/09/07 07:12:27;;;;;;;15.05;13.45;;;18.40;99.90;;;;;;5050323;28;20049;-54
2022/09/07 07:14:53;;;;;;;18.83;13.27;;;18.50;99.90;;;;;;5051633;28;20029;-54
2022/09/07 07:17:18;;;;;;;16.70;13.05;;;18.50;99.90;;;;;;5051778;28;20021;-54
2022/09/07 07:19:44;;;;;;;18.70;11.85;;;18.60;99.90;;;;;;5051476;28;20037;-54
2022/09/07 07:22:09;;;;;;;15.18;12.18;;;18.70;99.90;;;;;;5051261;28;20031;-55
2022/09/07 07:24:34;;;;;;;15.65;12.07;;;18.90;99.90;;;;;;5050901;28;20042;-54
2022/09/07 07:27:00;;;;;;;14.05;12.23;;;18.80;99.90;;;;;;5050000;28;20071;-54
2022/09/07 07:29:25;;;;;;;14.82;12.13;;;18.90;99.90;;;;;;5049725;28;20052;-54
2022/09/07 07:31:51;;;;;;;12.93;11.23;;;19.00;99.90;;;;;;5051168;28;20039;-54
2022/09/07 07:34:16;;;;;;;14.80;10.93;;;19.00;99.90;;;;;;5050315;28;20471;-54
2022/09/07 07:36:42;;;;;;;17.58;11.23;;;19.00;99.90;;;;;;5051006;28;20056;-54
2022/09/07 07:39:09;;;;;;;14.85;11.55;;;19.00;99.90;;;;;;5040516;28;20076;-52
2022/09/07 07:41:34;;;;;;;14.55;11.95;;;19.10;99.90;;;;;;5042311;28;20025;-52
2022/09/07 07:44:00;;;;;;;13.40;10.88;;;19.10;99.90;;;;;;5050429;28;20036;-52
2022/09/07 07:46:26;;;;;;;14.98;11.93;;;19.10;99.90;;;;;;5050508;28;20118;-52
2022/09/07 07:48:53;;;;;;;14.25;11.52;;;19.20;99.90;;;;;;5051206;28;20152;-53
2022/09/07 07:51:19;;;;;;;16.63;12.25;;;19.40;99.90;;;;;;5050696;28;20037;-52
2022/09/07 07:53:44;;;;;;;11.95;10.10;;;19.50;99.90;;;;;;5049927;28;20406;-52
2022/09/07 07:56:11;;;;;;;15.63;11.60;;;19.50;99.90;;;;;;5050457;28;20051;-52
2022/09/07 07:58:37;;;;;;;24.30;14.75;;;19.60;99.90;;;;;;5050857;28;20025;-52
2022/09/07 08:01:07;;;;;;;19.85;13.80;;;19.60;99.90;;;;;;5050653;28;20033;-52
2022/09/07 08:03:38;;;;;;;18.30;13.23;;;19.20;99.90;;;;;;5049808;28;20021;-53
2022/09/07 08:06:09;;;;;;;14.85;11.90;;;19.00;99.90;;;;;;5049451;28;20136;-52
2022/09/07 08:08:35;;;;;;;14.48;12.43;;;18.70;99.90;;;;;;5041570;28;20021;-54
2022/09/07 08:11:07;;;;;;;22.17;12.95;;;18.60;99.90;;;;;;5038759;28;20120;-53
2022/09/07 08:13:34;;;;;;;15.98;12.25;;;18.50;99.90;;;;;;5049907;28;20036;-53
2022/09/07 08:15:59;;;;;;;18.08;14.48;;;18.40;99.90;;;;;;5050190;28;20017;-53
2022/09/07 08:18:25;;;;;;;23.98;17.90;;;18.30;99.90;;;;;;5050151;28;20516;-54
2022/09/07 08:20:51;;;;;;;25.98;17.35;;;18.20;99.90;;;;;;5044311;28;20099;-55
2022/09/07 08:23:19;;;;;;;27.70;18.40;;;18.20;99.90;;;;;;5040195;28;20037;-54
2022/09/07 08:25:53;;;;;;;25.80;19.05;;;18.20;99.90;;;;;;5049018;28;20108;-53
2022/09/07 08:28:20;;;;;;;23.48;18.05;;;18.20;99.90;;;;;;5050131;28;20033;-54
2022/09/07 08:30:46;;;;;;;25.92;19.25;;;18.30;99.90;;;;;;5043063;28;20026;-54
2022/09/07 08:33:12;;;;;;;28.35;20.83;;;18.30;99.90;;;;;;5021791;28;20395;-54
2022/09/07 08:35:37;;;;;;;109.53;84.63;;;18.30;99.90;;;;;;5023641;28;20388;-53
2022/09/07 08:38:03;;;;;;;58.35;43.10;;;18.30;99.90;;;;;;5021296;28;20036;-54
2022/09/07 08:40:31;;;;;;;37.80;28.10;;;18.30;99.90;;;;;;5022245;28;20548;-54
2022/09/07 08:43:07;;;;;;;26.40;19.88;;;18.40;99.90;;;;;;5019767;28;20443;-53
2022/09/07 08:45:41;;;;;;;28.42;18.98;;;18.40;99.90;;;;;;5020022;28;20475;-53
2022/09/07 08:48:13;;;;;;;27.58;19.90;;;18.50;99.90;;;;;;5018416;28;20394;-53
2022/09/07 08:50:52;;;;;;;25.13;19.17;;;18.60;99.90;;;;;;5021852;28;20545;-53
2022/09/07 08:53:20;;;;;;;26.13;17.08;;;18.70;99.90;;;;;;5026677;28;20035;-53
2022/09/07 08:55:54;;;;;;;25.60;17.80;;;18.80;99.90;;;;;;5021805;28;20325;-53
2022/09/07 08:58:42;;;;;;;29.95;18.35;;;19.00;99.90;;;;;;5019844;28;20056;-54
2022/09/07 09:01:11;;;;;;;23.48;18.70;;;19.00;99.90;;;;;;5021471;28;20057;-53
2022/09/07 09:03:36;;;;;;;26.00;18.38;;;19.20;99.90;;;;;;5020050;28;20026;-53
2022/09/07 09:06:11;;;;;;;19.85;17.65;;;19.40;99.90;;;;;;5019503;28;20025;-54
2022/09/07 09:08:57;;;;;;;21.60;16.42;;;19.70;99.90;;;;;;5023270;28;20021;-54
2022/09/07 09:11:49;;;;;;;18.40;14.98;;;19.90;99.90;;;;;;5023068;28;20026;-53
2022/09/07 09:14:56;;;;;;;19.52;15.80;;;20.00;99.90;;;;;;5013132;28;20029;-53
2022/09/07 09:17:51;;;;;;;22.92;16.30;;;20.00;99.90;;;;;;5020531;28;20443;-54
2022/09/07 09:20:26;;;;;;;18.33;14.77;;;20.00;99.90;;;;;;5005326;28;20120;-54
2022/09/07 09:23:11;;;;;;;21.17;15.52;;;20.00;99.90;;;;;;5009157;28;20036;-53
2022/09/07 09:25:39;;;;;;;18.08;15.75;;;20.10;99.90;;;;;;5022587;28;20525;-54
2022/09/07 09:28:04;;;;;;;17.42;15.38;;;20.10;99.90;;;;;;5039959;28;20415;-53
2022/09/07 09:30:30;;;;;;;21.85;14.45;;;20.20;99.90;;;;;;5049809;28;20121;-53
2022/09/07 09:33:19;;;;;;;20.58;16.80;;;20.30;99.90;;;;;;5033751;28;20056;-54
2022/09/07 09:35:55;;;;;;;14.27;12.77;;;20.30;99.90;;;;;;5026810;28;20083;-54
2022/09/07 09:38:38;;;;;;;14.57;13.07;;;20.40;99.90;;;;;;5029573;28;20052;-53
2022/09/07 09:41:09;;;;;;;60.97;45.45;;;20.50;99.90;;;;;;5029675;28;20490;-55
2022/09/07 09:43:51;;;;;;;63.92;49.20;;;20.60;99.90;;;;;;5028985;28;20029;-55
2022/09/07 09:46:23;;;;;;;26.55;20.55;;;20.90;99.90;;;;;;5025257;28;20033;-55
2022/09/07 09:49:10;;;;;;;16.33;13.25;;;21.10;99.90;;;;;;5038002;28;20078;-55
2022/09/07 09:51:43;;;;;;;18.45;13.90;;;21.70;99.90;;;;;;5009754;28;20025;-57
2022/09/07 09:54:42;;;;;;;15.57;10.95;;;23.50;99.90;;;;;;5013869;28;20026;-57
2022/09/07 09:57:14;;;;;;;15.45;9.48;;;24.70;99.90;;;;;;5012216;28;20091;-56
2022/09/07 09:59:40;;;;;;;14.63;10.20;;;25.10;99.80;;;;;;5017471;28;20375;-56
2022/09/07 10:02:38;;;;;;;9.63;8.10;;;25.90;98.20;;;;;;5018773;28;20113;-56
2022/09/07 10:05:39;;;;;;;13.77;9.25;;;27.70;95.60;;;;;;5006285;28;20030;-56
2022/09/07 10:08:27;;;;;;;8.07;7.30;;;29.10;91.10;;;;;;5019949;28;20030;-55
2022/09/07 10:10:56;;;;;;;9.73;8.20;;;31.00;84.00;;;;;;5023812;28;20109;-57
2022/09/07 10:13:28;;;;;;;11.98;7.70;;;31.30;80.60;;;;;;5015938;28;20026;-55
2022/09/07 10:15:55;;;;;;;10.57;7.30;;;31.70;77.50;;;;;;5025947;28;20125;-56
2022/09/07 10:18:32;;;;;;;9.25;7.10;;;31.60;77.70;;;;;;5022049;28;20038;-55
2022/09/07 10:21:22;;;;;;;14.75;8.10;;;31.50;77.30;;;;;;5016797;28;20499;-57
2022/09/07 10:24:14;;;;;;;18.50;7.80;;;32.00;74.40;;;;;;5017199;28;20152;-56
2022/09/07 10:26:43;;;;;;;12.80;8.20;;;32.40;69.90;;;;;;5017622;28;20018;-56
2022/09/07 10:29:35;;;;;;;8.90;7.72;;;32.30;71.40;;;;;;5017343;28;20482;-55
2022/09/07 10:32:25;;;;;;;8.95;7.90;;;31.50;71.00;;;;;;5019191;28;20022;-55
2022/09/07 10:35:02;;;;;;;10.00;7.80;;;30.50;74.50;;;;;;5014553;28;20108;-55
2022/09/07 10:37:49;;;;;;;15.15;7.80;;;30.00;74.90;;;;;;5019513;28;20367;-56
2022/09/07 10:40:59;;;;;;;10.73;8.25;;;29.20;75.70;;;;;;5019598;28;20137;-56
2022/09/07 10:43:30;;;;;;;;;;;28.70;76.00;;;;;;5014022;28;20519;-56
2022/09/07 10:46:23;;;;;;;12.90;7.68;;;29.70;75.70;;;;;;5021151;28;19905;-56
2022/09/07 10:49:07;;;;;;;8.77;6.55;;;30.10;74.80;;;;;;5018776;28;20057;-55
2022/09/07 10:51:40;;;;;;;12.30;7.80;;;31.30;74.00;;;;;;5018754;28;20084;-55
2022/09/07 10:54:32;;;;;;;16.48;6.55;;;32.60;68.90;;;;;;5024925;28;20021;-55
2022/09/07 10:57:35;;;;;;;15.07;6.47;;;33.90;66.20;;;;;;5015545;28;20047;-56
2022/09/07 11:00:12;;;;;;;9.98;6.30;;;33.90;65.10;;;;;;5017448;28;20025;-55
2022/09/07 11:03:11;;;;;;;8.88;6.03;;;34.70;63.60;;;;;;5015173;28;20542;-55
2022/09/07 11:05:54;;;;;;;8.95;5.97;;;34.80;63.10;;;;;;5019134;28;20545;-55
2022/09/07 11:08:51;;;;;;;7.93;5.78;;;34.60;61.70;;;;;;5041299;28;20130;-56
2022/09/07 11:11:33;;;;;;;22.70;16.73;;;34.30;62.60;;;;;;5020587;28;20034;-55
2022/09/07 11:14:08;;;;;;;57.03;50.85;;;33.50;63.50;;;;;;5017006;28;20030;-55
2022/09/07 11:16:38;;;;;;;15.18;12.80;;;33.00;64.30;;;;;;5017788;28;20034;-56
2022/09/07 11:19:15;;;;;;;11.07;7.13;;;31.90;66.60;;;;;;5020879;28;20120;-56
2022/09/07 11:21:59;;;;;;;12.15;6.72;;;31.00;67.90;;;;;;5019849;28;20022;-56
2022/09/07 11:24:40;;;;;;;8.52;7.60;;;30.20;70.50;;;;;;5021287;28;20471;-55
2022/09/07 11:27:20;;;;;;;8.55;6.68;;;29.70;71.80;;;;;;5024687;28;20026;-55
2022/09/07 11:29:56;;;;;;;7.50;6.75;;;29.30;74.00;;;;;;5020500;28;20018;-56
2022/09/07 11:32:30;;;;;;;9.63;7.72;;;28.90;74.20;;;;;;5016797;28;20046;-55
2022/09/07 11:35:25;;;;;;;13.75;8.15;;;28.70;74.00;;;;;;5016378;28;20040;-56
2022/09/07 11:37:58;;;;;;;10.27;8.38;;;28.20;76.70;;;;;;5013159;28;20042;-55
2022/09/07 11:41:16;;;;;;;9.43;7.50;;;28.10;76.60;;;;;;5022716;28;20060;-54
2022/09/07 11:44:02;;;;;;;8.55;7.53;;;27.80;78.40;;;;;;5020466;28;20049;-55
2022/09/07 11:46:44;;;;;;;13.02;7.60;;;27.40;80.00;;;;;;5016878;28;20018;-55
2022/09/07 11:49:25;;;;;;;13.98;8.85;;;27.20;80.40;;;;;;5020757;28;20048;-56
2022/09/07 11:52:03;;;;;;;8.48;7.60;;;27.00;80.70;;;;;;5020909;28;20021;-56
2022/09/07 11:54:35;;;;;;;10.98;8.00;;;26.90;81.90;;;;;;5021299;28;20025;-56
2022/09/07 11:57:13;;;;;;;10.20;8.40;;;26.80;81.50;;;;;;5018831;28;20053;-55
2022/09/07 12:00:07;;;;;;;8.93;8.02;;;27.10;81.30;;;;;;5020973;28;20022;-56
2022/09/07 12:02:42;;;;;;;12.15;8.23;;;27.20;82.50;;;;;;5022441;28;20034;-55
2022/09/07 12:05:35;;;;;;;47.38;40.33;;;27.30;81.50;;;;;;5025239;28;20326;-55
2022/09/07 12:08:19;;;;;;;38.15;31.33;;;27.40;81.80;;;;;;5023987;28;20057;-55
2022/09/07 12:11:14;;;;;;;17.05;13.18;;;27.50;82.90;;;;;;5027593;28;20425;-56
2022/09/07 12:14:11;;;;;;;8.82;7.93;;;27.40;81.70;;;;;;5019583;28;20028;-56
2022/09/07 12:16:55;;;;;;;8.13;6.78;;;27.80;81.20;;;;;;5021631;28;20076;-56
2022/09/07 12:19:22;;;;;;;9.23;8.32;;;27.90;81.60;;;;;;5032764;28;20044;-54
2022/09/07 12:21:55;;;;;;;10.20;7.53;;;27.90;81.20;;;;;;5020746;28;20022;-55
2022/09/07 12:24:37;;;;;;;10.82;7.97;;;28.10;80.90;;;;;;5019604;28;20030;-54
2022/09/07 12:27:18;;;;;;;8.52;7.65;;;28.60;80.50;;;;;;5020299;28;20383;-55
2022/09/07 12:29:45;;;;;;;8.02;7.18;;;29.00;77.20;;;;;;5019004;28;20029;-55
2022/09/07 12:32:11;;;;;;;11.07;8.48;;;29.10;78.80;;;;;;5020349;28;20021;-55
2022/09/07 12:34:45;;;;;;;10.68;7.40;;;29.10;78.30;;;;;;5021047;28;20060;-55
2022/09/07 12:37:35;;;;;;;7.68;6.65;;;29.20;79.20;;;;;;5021411;28;20079;-55
2022/09/07 12:40:39;;;;;;;8.70;7.40;;;29.50;79.70;;;;;;5022935;28;20159;-55
2022/09/07 12:43:11;;;;;;;9.70;7.18;;;29.50;76.70;;;;;;5030562;28;20104;-54
2022/09/07 12:45:36;;;;;;;11.55;7.47;;;29.60;78.90;;;;;;5030533;28;20086;-55
2022/09/07 12:48:14;;;;;;;8.43;7.10;;;29.70;79.20;;;;;;5030508;28;20030;-55
2022/09/07 12:51:03;;;;;;;9.05;6.88;;;29.80;78.10;;;;;;5029677;28;20022;-54
2022/09/07 12:53:34;;;;;;;8.15;6.50;;;29.70;76.90;;;;;;5030420;28;20040;-54
2022/09/07 12:56:15;;;;;;;8.70;6.55;;;29.50;77.60;;;;;;5029600;28;20029;-54
2022/09/07 12:59:18;;;;;;;8.07;6.78;;;29.40;79.10;;;;;;5028033;28;20029;-55
2022/09/07 13:01:55;;;;;;;32.95;27.30;;;29.50;78.30;;;;;;5029577;28;20025;-54